sensor_id;sensor_type;location;lat;lon;timestamp;temperature;humidity
4693;DHT22;11710;48.024;16.296;2023-01-16T06:44:46;4.70;99.90
4693;DHT22;11710;48.024;16.296;2023-01-16T06:47:13;4.70;99.90
4693;DHT22;11710;48.024;16.296;2023-01-16T06:49:41;4.60;99.90
4693;DHT22;11710;48.024;16.296;2023-01-16T06:52:09;4.60;99.90
4693;DHT22;11710;48.024;16.296;2023-01-16T06:54:36;4.60;99.90
4693;DHT22;11710;48.024;16.296;2023-01-16T06:57:03;4.60;99.90
4693;DHT22;11710;48.024;16.296;2023-01-16T06:59:30;4.50;99.90
4693;DHT22;11710;48.024;16.296;2023-01-16T07:01:59;4.50;99.90
4693;DHT22;11710;48.024;16.296;2023-01-16T07:04:26;4.50;99.90
4693;DHT22;11710;48.024;16.296;2023-01-16T07:06:53;4.50;99.90
4693;DHT22;11710;48.024;16.296;2023-01-16T07:09:20;4.50;99.90
4693;DHT22;11710;48.024;16.296;2023-01-16T07:11:52;4.50;99.90
4693;DHT22;11710;48.024;16.296;2023-01-16T07:14:19;4.60;99.90
4693;DHT22;11710;48.024;16.296;2023-01-16T07:17:05;4.50;99.90
4693;DHT22;11710;48.024;16.296;2023-01-16T07:19:50;4.60;99.90
4693;DHT22;11710;48.024;16.296;2023-01-16T07:22:35;4.60;99.90
4693;DHT22;11710;48.024;16.296;2023-01-16T07:25:08;4.70;99.90
4693;DHT22;11710;48.024;16.296;2023-01-16T07:27:37;4.70;99.90
4693;DHT22;11710;48.024;16.296;2023-01-16T07:30:07;4.80;99.90
4693;DHT22;11710;48.024;16.296;2023-01-16T07:32:36;4.90;99.90
4693;DHT22;11710;48.024;16.296;2023-01-16T07:35:04;4.90;99.90
4693;DHT22;11710;48.024;16.296;2023-01-16T07:37:33;5.00;99.90
4693;DHT22;11710;48.024;16.296;2023-01-16T07:40:01;5.00;99.90
4693;DHT22;11710;48.024;16.296;2023-01-16T07:42:29;5.10;99.90
4693;DHT22;11710;48.024;16.296;2023-01-16T07:44:56;5.10;99.90
4693;DHT22;11710;48.024;16.296;2023-01-16T07:47:24;5.10;99.90
4693;DHT22;11710;48.024;16.296;2023-01-16T07:49:52;5.20;99.90
4693;DHT22;11710;48.024;16.296;2023-01-16T07:52:19;5.20;99.90
4693;DHT22;11710;48.024;16.296;2023-01-16T07:54:47;5.10;99.90
4693;DHT22;11710;48.024;16.296;2023-01-16T07:57:14;5.10;99.90
4693;DHT22;11710;48.024;16.296;2023-01-16T07:59:41;5.10;99.90
4693;DHT22;11710;48.024;16.296;2023-01-16T08:02:10;5.00;99.90
4693;DHT22;11710;48.024;16.296;2023-01-16T08:04:38;5.00;99.90
4693;DHT22;11710;48.024;16.296;2023-01-16T08:07:08;4.90;99.90
4693;DHT22;11710;48.024;16.296;2023-01-16T08:09:35;4.80;99.90
4693;DHT22;11710;48.024;16.296;2023-01-16T08:12:03;4.70;99.90
4693;DHT22;11710;48.024;16.296;2023-01-16T08:14:30;4.80;99.90
4693;DHT22;11710;48.024;16.296;2023-01-16T08:16:57;4.80;99.90
4693;DHT22;11710;48.024;16.296;2023-01-16T08:19:24;4.80;99.90
4693;DHT22;11710;48.024;16.296;2023-01-16T08:21:51;4.80;99.90
4693;DHT22;11710;48.024;16.296;2023-01-16T08:24:20;4.70;99.90
4693;DHT22;11710;48.024;16.296;2023-01-16T08:26:47;4.70;99.90
4693;DHT22;11710;48.024;16.296;2023-01-16T08:29:15;4.80;99.90
4693;DHT22;11710;48.024;16.296;2023-01-16T08:31:42;4.80;99.90
4693;DHT22;11710;48.024;16.296;2023-01-16T08:34:09;4.80;99.90
4693;DHT22;11710;48.024;16.296;2023-01-16T08:36:36;4.80;99.90
4693;DHT22;11710;48.024;16.296;2023-01-16T08:39:04;4.80;99.90
4693;DHT22;11710;48.024;16.296;2023-01-16T08:41:32;5.00;99.90
4693;DHT22;11710;48.024;16.296;2023-01-16T08:44:17;5.10;99.90
4693;DHT22;11710;48.024;16.296;2023-01-16T08:47:04;5.20;99.90
4693;DHT22;11710;48.024;16.296;2023-01-16T08:49:49;5.40;99.90
4693;DHT22;11710;48.024;16.296;2023-01-16T08:52:35;5.50;99.90
4693;DHT22;11710;48.024;16.296;2023-01-16T08:55:03;5.50;99.90
4693;DHT22;11710;48.024;16.296;2023-01-16T08:57:32;5.60;99.90
4693;DHT22;11710;48.024;16.296;2023-01-16T09:00:02;5.60;99.90
4693;DHT22;11710;48.024;16.296;2023-01-16T09:02:31;5.50;99.90
4693;DHT22;11710;48.024;16.296;2023-01-16T09:05:02;5.50;99.90
4693;DHT22;11710;48.024;16.296;2023-01-16T09:07:29;5.50;99.90
4693;DHT22;11710;48.024;16.296;2023-01-16T09:09:56;5.50;99.90
4693;DHT22;11710;48.024;16.296;2023-01-16T09:12:23;5.40;99.90
4693;DHT22;11710;48.024;16.296;2023-01-16T09:15:10;5.40;99.90
4693;DHT22;11710;48.024;16.296;2023-01-16T09:17:37;5.30;99.90
4693;DHT22;11710;48.024;16.296;2023-01-16T09:20:05;5.20;99.90
4693;DHT22;11710;48.024;16.296;2023-01-16T09:22:32;5.30;99.90
4693;DHT22;11710;48.024;16.296;2023-01-16T09:24:59;5.40;99.90
4693;DHT22;11710;48.024;16.296;2023-01-16T09:27:27;5.40;99.90
4693;DHT22;11710;48.024;16.296;2023-01-16T09:29:54;5.50;99.90
4693;DHT22;11710;48.024;16.296;2023-01-16T09:32:22;5.50;99.90
4693;DHT22;11710;48.024;16.296;2023-01-16T09:34:50;5.50;99.90
4693;DHT22;11710;48.024;16.296;2023-01-16T09:37:17;5.50;99.90
4693;DHT22;11710;48.024;16.296;2023-01-16T09:39:44;5.50;99.90
4693;DHT22;11710;48.024;16.296;2023-01-16T09:42:33;5.50;99.90
4693;DHT22;11710;48.024;16.296;2023-01-16T09:45:22;5.70;99.90
4693;DHT22;11710;48.024;16.296;2023-01-16T09:47:59;5.80;99.90
4693;DHT22;11710;48.024;16.296;2023-01-16T09:50:31;5.80;99.90
4693;DHT22;11710;48.024;16.296;2023-01-16T09:53:01;5.90;99.90
4693;DHT22;11710;48.024;16.296;2023-01-16T09:55:48;5.90;99.90
4693;DHT22;11710;48.024;16.296;2023-01-16T09:58:38;5.90;99.90
4693;DHT22;11710;48.024;16.296;2023-01-16T10:01:08;5.80;99.90
4693;DHT22;11710;48.024;16.296;2023-01-16T10:03:38;5.90;99.90
4693;DHT22;11710;48.024;16.296;2023-01-16T10:06:16;6.00;99.90
4693;DHT22;11710;48.024;16.296;2023-01-16T10:08:58;6.00;99.90
4693;DHT22;11710;48.024;16.296;2023-01-16T10:11:35;6.10;99.90
4693;DHT22;11710;48.024;16.296;2023-01-16T10:14:43;6.00;99.90
4693;DHT22;11710;48.024;16.296;2023-01-16T10:17:20;6.00;99.90
4693;DHT22;11710;48.024;16.296;2023-01-16T10:20:08;6.10;99.90
4693;DHT22;11710;48.024;16.296;2023-01-16T10:22:52;6.10;99.90
4693;DHT22;11710;48.024;16.296;2023-01-16T10:25:28;6.10;99.90
4693;DHT22;11710;48.024;16.296;2023-01-16T10:28:09;6.10;99.90
4693;DHT22;11710;48.024;16.296;2023-01-16T10:30:44;6.10;99.90
4693;DHT22;11710;48.024;16.296;2023-01-16T10:33:18;6.20;99.90
4693;DHT22;11710;48.024;16.296;2023-01-16T10:35:51;6.30;99.90
4693;DHT22;11710;48.024;16.296;2023-01-16T10:38:24;6.30;99.90
4693;DHT22;11710;48.024;16.296;2023-01-16T10:40:59;6.30;99.90
4693;DHT22;11710;48.024;16.296;2023-01-16T10:43:47;6.20;99.90
4693;DHT22;11710;48.024;16.296;2023-01-16T10:46:33;6.10;99.90
4693;DHT22;11710;48.024;16.296;2023-01-16T10:49:18;6.00;99.90
4693;DHT22;11710;48.024;16.296;2023-01-16T10:51:58;5.90;99.90
4693;DHT22;11710;48.024;16.296;2023-01-16T10:54:27;5.90;99.90
4693;DHT22;11710;48.024;16.296;2023-01-16T10:56:56;5.70;99.90
4693;DHT22;11710;48.024;16.296;2023-01-16T10:59:30;5.50;99.90
4693;DHT22;11710;48.024;16.296;2023-01-16T11:02:03;5.50;99.90
4693;DHT22;11710;48.024;16.296;2023-01-16T11:04:37;5.50;99.90
4693;DHT22;11710;48.024;16.296;2023-01-16T11:07:16;5.40;99.90
4693;DHT22;11710;48.024;16.296;2023-01-16T11:09:44;5.30;99.90
4693;DHT22;11710;48.024;16.296;2023-01-16T11:12:17;5.30;99.90
4693;DHT22;11710;48.024;16.296;2023-01-16T11:15:13;5.20;99.90
4693;DHT22;11710;48.024;16.296;2023-01-16T11:17:58;5.10;99.90
4693;DHT22;11710;48.024;16.296;2023-01-16T11:20:42;5.10;99.90
4693;DHT22;11710;48.024;16.296;2023-01-16T11:23:18;5.20;99.90
4693;DHT22;11710;48.024;16.296;2023-01-16T11:25:48;5.10;99.90
4693;DHT22;11710;48.024;16.296;2023-01-16T11:28:20;5.00;99.90
4693;DHT22;11710;48.024;16.296;2023-01-16T11:30:51;4.90;99.90
4693;DHT22;11710;48.024;16.296;2023-01-16T11:33:24;4.80;99.90
4693;DHT22;11710;48.024;16.296;2023-01-16T11:35:55;4.80;99.90
4693;DHT22;11710;48.024;16.296;2023-01-16T11:38:26;4.80;99.90
4693;DHT22;11710;48.024;16.296;2023-01-16T11:40:56;4.80;99.90
4693;DHT22;11710;48.024;16.296;2023-01-16T11:43:26;4.80;99.90
4693;DHT22;11710;48.024;16.296;2023-01-16T11:46:33;4.80;99.90
4693;DHT22;11710;48.024;16.296;2023-01-16T11:49:02;4.60;99.90
4693;DHT22;11710;48.024;16.296;2023-01-16T11:51:32;4.60;99.90
4693;DHT22;11710;48.024;16.296;2023-01-16T11:54:02;4.60;99.90
4693;DHT22;11710;48.024;16.296;2023-01-16T11:56:55;4.70;99.90
4693;DHT22;11710;48.024;16.296;2023-01-16T11:59:41;4.70;99.90
4693;DHT22;11710;48.024;16.296;2023-01-16T12:02:27;4.90;99.90
4693;DHT22;11710;48.024;16.296;2023-01-16T12:05:08;5.00;99.90
4693;DHT22;11710;48.024;16.296;2023-01-16T12:08:14;5.10;99.90
4693;DHT22;11710;48.024;16.296;2023-01-16T12:10:55;5.40;99.90
4693;DHT22;11710;48.024;16.296;2023-01-16T12:13:33;5.50;99.90
4693;DHT22;11710;48.024;16.296;2023-01-16T12:16:23;5.70;99.90
4693;DHT22;11710;48.024;16.296;2023-01-16T12:19:09;6.00;99.90
4693;DHT22;11710;48.024;16.296;2023-01-16T12:21:43;6.10;99.90
4693;DHT22;11710;48.024;16.296;2023-01-16T12:24:31;6.20;99.90
4693;DHT22;11710;48.024;16.296;2023-01-16T12:27:14;5.90;99.90
4693;DHT22;11710;48.024;16.296;2023-01-16T12:29:55;6.00;99.90
4693;DHT22;11710;48.024;16.296;2023-01-16T12:32:43;6.20;99.90
4693;DHT22;11710;48.024;16.296;2023-01-16T12:38:12;6.60;99.90
4693;DHT22;11710;48.024;16.296;2023-01-16T12:40:52;6.70;99.90
4693;DHT22;11710;48.024;16.296;2023-01-16T12:43:53;6.80;99.90
4693;DHT22;11710;48.024;16.296;2023-01-16T12:46:30;6.50;99.90
4693;DHT22;11710;48.024;16.296;2023-01-16T12:49:12;6.50;99.90
4693;DHT22;11710;48.024;16.296;2023-01-16T12:51:52;6.40;99.90
4693;DHT22;11710;48.024;16.296;2023-01-16T12:54:40;6.00;99.90
4693;DHT22;11710;48.024;16.296;2023-01-16T12:57:26;5.70;99.90
4693;DHT22;11710;48.024;16.296;2023-01-16T13:00:00;5.30;99.90
4693;DHT22;11710;48.024;16.296;2023-01-16T13:02:45;5.40;99.90
4693;DHT22;11710;48.024;16.296;2023-01-16T13:05:19;5.30;99.90
4693;DHT22;11710;48.024;16.296;2023-01-16T13:07:53;5.20;99.90
4693;DHT22;11710;48.024;16.296;2023-01-16T13:10:28;5.20;99.90
4693;DHT22;11710;48.024;16.296;2023-01-16T13:13:21;5.20;99.90
4693;DHT22;11710;48.024;16.296;2023-01-16T13:15:59;5.10;99.90
4693;DHT22;11710;48.024;16.296;2023-01-16T13:18:33;5.00;99.90
4693;DHT22;11710;48.024;16.296;2023-01-16T13:21:04;5.00;99.90
4693;DHT22;11710;48.024;16.296;2023-01-16T13:23:37;4.90;99.90
4693;DHT22;11710;48.024;16.296;2023-01-16T13:26:10;4.90;99.90
4693;DHT22;11710;48.024;16.296;2023-01-16T13:28:45;4.90;99.90
4693;DHT22;11710;48.024;16.296;2023-01-16T13:31:32;4.90;99.90
4693;DHT22;11710;48.024;16.296;2023-01-16T13:34:07;4.90;99.90
4693;DHT22;11710;48.024;16.296;2023-01-16T13:37:13;4.80;99.90
4693;DHT22;11710;48.024;16.296;2023-01-16T13:42:50;4.70;99.90
4693;DHT22;11710;48.024;16.296;2023-01-16T13:45:28;4.60;99.90
4693;DHT22;11710;48.024;16.296;2023-01-16T13:48:21;4.60;99.90
4693;DHT22;11710;48.024;16.296;2023-01-16T13:50:56;4.50;99.90
4693;DHT22;11710;48.024;16.296;2023-01-16T13:53:25;4.60;99.90
4693;DHT22;11710;48.024;16.296;2023-01-16T13:56:04;4.60;99.90
4693;DHT22;11710;48.024;16.296;2023-01-16T13:58:38;4.60;99.90
4693;DHT22;11710;48.024;16.296;2023-01-16T14:01:31;4.60;99.90
4693;DHT22;11710;48.024;16.296;2023-01-16T14:04:30;4.60;99.90
4693;DHT22;11710;48.024;16.296;2023-01-16T14:07:00;4.50;99.90
4693;DHT22;11710;48.024;16.296;2023-01-16T14:10:04;4.50;99.90
4693;DHT22;11710;48.024;16.296;2023-01-16T14:12:34;4.50;99.90
4693;DHT22;11710;48.024;16.296;2023-01-16T14:15:17;4.40;99.90
4693;DHT22;11710;48.024;16.296;2023-01-16T14:18:13;4.40;99.90
4693;DHT22;11710;48.024;16.296;2023-01-16T14:20:51;4.30;99.90
4693;DHT22;11710;48.024;16.296;2023-01-16T14:23:23;4.30;99.90
4693;DHT22;11710;48.024;16.296;2023-01-16T14:26:17;4.30;99.90
4693;DHT22;11710;48.024;16.296;2023-01-16T14:28:47;4.30;99.90
4693;DHT22;11710;48.024;16.296;2023-01-16T14:31:23;4.20;99.90
4693;DHT22;11710;48.024;16.296;2023-01-16T14:33:55;4.30;99.90
4693;DHT22;11710;48.024;16.296;2023-01-16T14:36:29;4.30;99.90
4693;DHT22;11710;48.024;16.296;2023-01-16T14:39:01;4.20;99.90
4693;DHT22;11710;48.024;16.296;2023-01-16T14:41:32;4.20;99.90
4693;DHT22;11710;48.024;16.296;2023-01-16T14:44:19;4.10;99.90
4693;DHT22;11710;48.024;16.296;2023-01-16T14:47:10;4.10;99.90
4693;DHT22;11710;48.024;16.296;2023-01-16T14:50:05;4.00;99.90
4693;DHT22;11710;48.024;16.296;2023-01-16T14:53:19;3.90;99.90
4693;DHT22;11710;48.024;16.296;2023-01-16T14:56:10;3.80;99.90
4693;DHT22;11710;48.024;16.296;2023-01-16T14:58:43;3.80;99.90
4693;DHT22;11710;48.024;16.296;2023-01-16T15:01:19;3.80;99.90
4693;DHT22;11710;48.024;16.296;2023-01-16T15:04:07;3.80;99.90
4693;DHT22;11710;48.024;16.296;2023-01-16T15:06:38;3.80;99.90
4693;DHT22;11710;48.024;16.296;2023-01-16T15:09:14;3.70;99.90
4693;DHT22;11710;48.024;16.296;2023-01-16T15:11:50;3.70;99.90
4693;DHT22;11710;48.024;16.296;2023-01-16T15:14:20;3.60;99.90
4693;DHT22;11710;48.024;16.296;2023-01-16T15:17:02;3.70;99.90
4693;DHT22;11710;48.024;16.296;2023-01-16T15:23:25;3.60;99.90
4693;DHT22;11710;48.024;16.296;2023-01-16T15:26:12;3.50;99.90
4693;DHT22;11710;48.024;16.296;2023-01-16T15:28:49;3.40;99.90
4693;DHT22;11710;48.024;16.296;2023-01-16T15:31:24;3.40;99.90
4693;DHT22;11710;48.024;16.296;2023-01-16T15:34:01;3.30;99.90
4693;DHT22;11710;48.024;16.296;2023-01-16T15:36:34;3.30;99.90
4693;DHT22;11710;48.024;16.296;2023-01-16T15:39:18;3.30;99.90
4693;DHT22;11710;48.024;16.296;2023-01-16T15:41:54;3.30;99.90
4693;DHT22;11710;48.024;16.296;2023-01-16T15:44:41;3.20;99.90
4693;DHT22;11710;48.024;16.296;2023-01-16T15:47:48;3.20;99.90
4693;DHT22;11710;48.024;16.296;2023-01-16T15:50:26;3.20;99.90
4693;DHT22;11710;48.024;16.296;2023-01-16T15:52:55;3.20;99.90
4693;DHT22;11710;48.024;16.296;2023-01-16T15:55:24;3.30;99.90
4693;DHT22;11710;48.024;16.296;2023-01-16T15:57:55;3.40;99.90
4693;DHT22;11710;48.024;16.296;2023-01-16T16:00:28;3.30;99.90
4693;DHT22;11710;48.024;16.296;2023-01-16T16:03:01;3.40;99.90
4693;DHT22;11710;48.024;16.296;2023-01-16T16:05:32;3.40;99.90
4693;DHT22;11710;48.024;16.296;2023-01-16T16:08:00;3.40;99.90
4693;DHT22;11710;48.024;16.296;2023-01-16T16:10:28;3.30;99.90
4693;DHT22;11710;48.024;16.296;2023-01-16T16:13:17;3.40;99.90
4693;DHT22;11710;48.024;16.296;2023-01-16T16:16:03;3.30;99.90
4693;DHT22;11710;48.024;16.296;2023-01-16T16:19:31;3.30;99.90
4693;DHT22;11710;48.024;16.296;2023-01-16T16:22:01;3.30;99.90
4693;DHT22;11710;48.024;16.296;2023-01-16T16:24:46;3.20;99.90
4693;DHT22;11710;48.024;16.296;2023-01-16T16:27:16;3.20;99.90
4693;DHT22;11710;48.024;16.296;2023-01-16T16:29:50;3.10;99.90
4693;DHT22;11710;48.024;16.296;2023-01-16T16:32:18;3.10;99.90
4693;DHT22;11710;48.024;16.296;2023-01-16T16:34:53;3.10;99.90
4693;DHT22;11710;48.024;16.296;2023-01-16T16:37:21;3.00;99.90
4693;DHT22;11710;48.024;16.296;2023-01-16T16:39:54;3.00;99.90
4693;DHT22;11710;48.024;16.296;2023-01-16T16:42:55;3.00;99.90
4693;DHT22;11710;48.024;16.296;2023-01-16T16:45:28;3.00;99.90
4693;DHT22;11710;48.024;16.296;2023-01-16T16:48:23;2.90;99.90
4693;DHT22;11710;48.024;16.296;2023-01-16T16:51:19;2.90;99.90
4693;DHT22;11710;48.024;16.296;2023-01-16T16:53:47;2.90;99.90
4693;DHT22;11710;48.024;16.296;2023-01-16T16:56:20;2.80;99.90
4693;DHT22;11710;48.024;16.296;2023-01-16T16:58:48;2.90;99.90
4693;DHT22;11710;48.024;16.296;2023-01-16T17:01:20;2.80;99.90
4693;DHT22;11710;48.024;16.296;2023-01-16T17:03:50;2.80;99.90
4693;DHT22;11710;48.024;16.296;2023-01-16T17:06:21;2.90;99.90
4693;DHT22;11710;48.024;16.296;2023-01-16T17:08:49;2.90;99.90
4693;DHT22;11710;48.024;16.296;2023-01-16T17:11:16;2.90;99.90
4693;DHT22;11710;48.024;16.296;2023-01-16T17:13:44;2.90;99.90
4693;DHT22;11710;48.024;16.296;2023-01-16T17:16:16;2.90;99.90
4693;DHT22;11710;48.024;16.296;2023-01-16T17:18:46;3.00;99.90
4693;DHT22;11710;48.024;16.296;2023-01-16T17:21:15;3.10;99.90
4693;DHT22;11710;48.024;16.296;2023-01-16T17:23:44;3.10;99.90
4693;DHT22;11710;48.024;16.296;2023-01-16T17:26:12;3.10;99.90
4693;DHT22;11710;48.024;16.296;2023-01-16T17:28:41;3.20;99.90
4693;DHT22;11710;48.024;16.296;2023-01-16T17:31:11;3.20;99.90
4693;DHT22;11710;48.024;16.296;2023-01-16T17:33:39;3.10;99.90
4693;DHT22;11710;48.024;16.296;2023-01-16T17:36:20;3.20;99.90
4693;DHT22;11710;48.024;16.296;2023-01-16T17:38:48;3.20;99.90
4693;DHT22;11710;48.024;16.296;2023-01-16T17:41:17;3.20;99.90
4693;DHT22;11710;48.024;16.296;2023-01-16T17:43:47;3.20;99.90
4693;DHT22;11710;48.024;16.296;2023-01-16T17:46:31;3.20;99.90
4693;DHT22;11710;48.024;16.296;2023-01-16T17:48:58;3.20;99.90
4693;DHT22;11710;48.024;16.296;2023-01-16T17:51:27;3.20;99.90
4693;DHT22;11710;48.024;16.296;2023-01-16T17:53:54;3.20;99.90
4693;DHT22;11710;48.024;16.296;2023-01-16T17:56:21;3.20;99.90
4693;DHT22;11710;48.024;16.296;2023-01-16T17:58:48;3.20;99.90
4693;DHT22;11710;48.024;16.296;2023-01-16T18:01:20;3.20;99.90
4693;DHT22;11710;48.024;16.296;2023-01-16T18:03:50;3.20;99.90
4693;DHT22;11710;48.024;16.296;2023-01-16T18:06:20;3.20;99.90
4693;DHT22;11710;48.024;16.296;2023-01-16T18:08:50;3.20;99.90
4693;DHT22;11710;48.024;16.296;2023-01-16T18:11:18;3.20;99.90
4693;DHT22;11710;48.024;16.296;2023-01-16T18:14:03;3.20;99.90
4693;DHT22;11710;48.024;16.296;2023-01-16T18:16:47;3.20;99.90
4693;DHT22;11710;48.024;16.296;2023-01-16T18:19:32;3.20;99.90
4693;DHT22;11710;48.024;16.296;2023-01-16T18:22:00;3.20;99.90
4693;DHT22;11710;48.024;16.296;2023-01-16T18:24:29;3.20;99.90
4693;DHT22;11710;48.024;16.296;2023-01-16T18:26:58;3.20;99.90
4693;DHT22;11710;48.024;16.296;2023-01-16T18:29:26;3.20;99.90
4693;DHT22;11710;48.024;16.296;2023-01-16T18:31:54;3.20;99.90
4693;DHT22;11710;48.024;16.296;2023-01-16T18:34:39;3.20;99.90
4693;DHT22;11710;48.024;16.296;2023-01-16T18:37:06;3.20;99.90
4693;DHT22;11710;48.024;16.296;2023-01-16T18:39:35;3.20;99.90
4693;DHT22;11710;48.024;16.296;2023-01-16T18:42:20;3.20;99.90
4693;DHT22;11710;48.024;16.296;2023-01-16T18:45:06;3.30;99.90
4693;DHT22;11710;48.024;16.296;2023-01-16T18:47:51;3.30;99.90
4693;DHT22;11710;48.024;16.296;2023-01-16T18:50:38;3.40;99.90
4693;DHT22;11710;48.024;16.296;2023-01-16T18:53:27;3.40;99.90
4693;DHT22;11710;48.024;16.296;2023-01-16T18:56:15;3.40;99.90
4693;DHT22;11710;48.024;16.296;2023-01-16T18:59:01;3.50;99.90
4693;DHT22;11710;48.024;16.296;2023-01-16T19:01:46;3.40;99.90
4693;DHT22;11710;48.024;16.296;2023-01-16T19:04:25;3.40;99.90
4693;DHT22;11710;48.024;16.296;2023-01-16T19:06:53;3.40;99.90
4693;DHT22;11710;48.024;16.296;2023-01-16T19:09:21;3.50;99.90
4693;DHT22;11710;48.024;16.296;2023-01-16T19:11:50;3.50;99.90
4693;DHT22;11710;48.024;16.296;2023-01-16T19:14:18;3.60;99.90
4693;DHT22;11710;48.024;16.296;2023-01-16T19:16:46;3.60;99.90
4693;DHT22;11710;48.024;16.296;2023-01-16T19:19:19;3.60;99.90
4693;DHT22;11710;48.024;16.296;2023-01-16T19:21:46;3.70;99.90
4693;DHT22;11710;48.024;16.296;2023-01-16T19:24:15;3.60;99.90
4693;DHT22;11710;48.024;16.296;2023-01-16T19:26:43;3.70;99.90
4693;DHT22;11710;48.024;16.296;2023-01-16T19:29:13;3.70;99.90
4693;DHT22;11710;48.024;16.296;2023-01-16T19:31:41;3.70;99.90
4693;DHT22;11710;48.024;16.296;2023-01-16T19:34:08;3.60;99.90
4693;DHT22;11710;48.024;16.296;2023-01-16T19:36:37;3.70;99.90
4693;DHT22;11710;48.024;16.296;2023-01-16T19:39:06;3.70;99.90
4693;DHT22;11710;48.024;16.296;2023-01-16T19:41:34;3.70;99.90
4693;DHT22;11710;48.024;16.296;2023-01-16T19:44:20;3.70;99.90
4693;DHT22;11710;48.024;16.296;2023-01-16T19:47:05;3.70;99.90
4693;DHT22;11710;48.024;16.296;2023-01-16T19:49:33;3.70;99.90
4693;DHT22;11710;48.024;16.296;2023-01-16T19:52:00;3.70;99.90
4693;DHT22;11710;48.024;16.296;2023-01-16T19:54:28;3.70;99.90
4693;DHT22;11710;48.024;16.296;2023-01-16T19:56:56;3.60;99.90
4693;DHT22;11710;48.024;16.296;2023-01-16T19:59:24;3.60;99.90
4693;DHT22;11710;48.024;16.296;2023-01-16T20:01:53;3.60;99.90
4693;DHT22;11710;48.024;16.296;2023-01-16T20:04:22;3.60;99.90
4693;DHT22;11710;48.024;16.296;2023-01-16T20:06:50;3.60;99.90
4693;DHT22;11710;48.024;16.296;2023-01-16T20:09:18;3.60;99.90
4693;DHT22;11710;48.024;16.296;2023-01-16T20:11:45;3.60;99.90
4693;DHT22;11710;48.024;16.296;2023-01-16T20:14:31;3.60;99.90
4693;DHT22;11710;48.024;16.296;2023-01-16T20:16:59;3.60;99.90
4693;DHT22;11710;48.024;16.296;2023-01-16T20:19:27;3.50;99.90
4693;DHT22;11710;48.024;16.296;2023-01-16T20:21:55;3.50;99.90
4693;DHT22;11710;48.024;16.296;2023-01-16T20:24:22;3.40;99.90
4693;DHT22;11710;48.024;16.296;2023-01-16T20:26:50;3.40;99.90
4693;DHT22;11710;48.024;16.296;2023-01-16T20:29:19;3.40;99.90
4693;DHT22;11710;48.024;16.296;2023-01-16T20:31:49;3.30;99.90
4693;DHT22;11710;48.024;16.296;2023-01-16T20:34:18;3.30;99.90
4693;DHT22;11710;48.024;16.296;2023-01-16T20:36:48;3.40;99.90
4693;DHT22;11710;48.024;16.296;2023-01-16T20:39:16;3.40;99.90
4693;DHT22;11710;48.024;16.296;2023-01-16T20:41:44;3.30;99.90
4693;DHT22;11710;48.024;16.296;2023-01-16T20:44:29;3.30;99.90
4693;DHT22;11710;48.024;16.296;2023-01-16T20:47:17;3.30;99.90
4693;DHT22;11710;48.024;16.296;2023-01-16T20:49:44;3.30;99.90
4693;DHT22;11710;48.024;16.296;2023-01-16T20:52:14;3.30;99.90
4693;DHT22;11710;48.024;16.296;2023-01-16T20:54:42;3.30;99.90
4693;DHT22;11710;48.024;16.296;2023-01-16T20:57:10;3.10;99.90
4693;DHT22;11710;48.024;16.296;2023-01-16T20:59:37;3.00;99.90
